Time;durP1;ratioP1;P1;durP2;ratioP2;P2;SDS_P1;SDS_P2;PMS_P1;PMS_P2;Temp;Humidity;BMP_temperature;BMP_pressure;BME280_temperature;BME280_humidity;BME280_pressure;Samples;Min_cycle;Max_cycle;Signal;HPM_P1;HPM_P2
2022/06/13 00:01:37;;;;;;;2.67;1.23;;;15.90;60.00;;;;;;5025008;28;20258;-79
2022/06/13 00:04:05;;;;;;;2.10;1.20;;;15.90;60.40;;;;;;5036362;28;20036;-79
2022/06/13 00:06:31;;;;;;;2.92;1.13;;;15.80;60.30;;;;;;5044263;28;20032;-78
2022/06/13 00:08:57;;;;;;;2.55;1.17;;;15.80;60.40;;;;;;5040366;28;20039;-79
2022/06/13 00:11:25;;;;;;;2.27;1.10;;;15.80;60.50;;;;;;5035871;28;20041;-79
2022/06/13 00:13:54;;;;;;;3.53;1.23;;;15.80;60.80;;;;;;5054301;28;20477;-79
2022/06/13 00:16:20;;;;;;;3.25;1.20;;;15.70;61.00;;;;;;5021371;28;20037;-78
2022/06/13 00:18:48;;;;;;;2.23;1.20;;;15.70;61.00;;;;;;5057000;28;20037;-79
2022/06/13 00:21:20;;;;;;;2.33;1.20;;;15.70;61.10;;;;;;5044175;28;20032;-79
2022/06/13 00:23:47;;;;;;;1.98;0.93;;;15.60;61.60;;;;;;5050283;28;20461;-79
2022/06/13 00:26:13;;;;;;;4.13;1.33;;;15.60;61.10;;;;;;5049786;28;20047;-78
2022/06/13 00:28:39;;;;;;;1.98;1.20;;;15.60;61.20;;;;;;5048287;28;20077;-79
2022/06/13 00:31:05;;;;;;;2.03;1.20;;;15.60;61.50;;;;;;5060126;28;20048;-79
2022/06/13 00:33:30;;;;;;;2.83;1.20;;;15.60;61.70;;;;;;5027063;28;20268;-79
2022/06/13 00:35:56;;;;;;;2.42;1.13;;;15.50;61.70;;;;;;5054459;28;20033;-78
2022/06/13 00:38:22;;;;;;;2.67;1.07;;;15.50;61.80;;;;;;5037986;28;20453;-78
2022/06/13 00:40:48;;;;;;;1.70;1.10;;;15.50;62.10;;;;;;5049080;28;20516;-78
2022/06/13 00:43:15;;;;;;;3.40;1.27;;;15.50;62.30;;;;;;5047200;28;20586;-79
2022/06/13 00:45:41;;;;;;;3.50;1.30;;;15.50;62.50;;;;;;5053947;28;20036;-79
2022/06/13 00:48:10;;;;;;;2.47;1.25;;;15.50;62.80;;;;;;5027851;28;20040;-79
2022/06/13 00:50:57;;;;;;;2.20;1.00;;;15.40;62.90;;;;;;5058263;28;20229;-79
2022/06/13 00:53:26;;;;;;;2.93;1.20;;;15.40;64.90;;;;;;5031047;28;20518;-78
2022/06/13 00:56:01;;;;;;;1.95;1.20;;;15.50;63.30;;;;;;5050720;28;20034;-78
2022/06/13 00:58:33;;;;;;;3.33;1.20;;;15.50;63.60;;;;;;5044858;28;20242;-78
2022/06/13 01:00:59;;;;;;;2.47;1.33;;;15.50;63.80;;;;;;5058151;28;20535;-79
2022/06/13 01:03:28;;;;;;;1.53;1.00;;;15.50;63.80;;;;;;5029393;28;20133;-78
2022/06/13 01:05:56;;;;;;;3.63;1.15;;;15.60;64.20;;;;;;5046620;28;20086;-79
2022/06/13 01:08:24;;;;;;;2.78;1.23;;;15.60;65.10;;;;;;5042458;28;20094;-79
2022/06/13 01:14:21;;;;;;;3.30;1.20;;;15.60;64.70;;;;;;5048384;28;20320;-79
2022/06/13 01:17:11;;;;;;;2.30;1.03;;;15.70;66.50;;;;;;5057604;28;20487;-79
2022/06/13 01:19:58;;;;;;;2.33;1.00;;;15.80;65.50;;;;;;5017363;28;21481;-78
2022/06/13 01:22:36;;;;;;;2.40;1.02;;;15.80;65.10;;;;;;5033118;28;20037;-79
2022/06/13 01:25:13;;;;;;;2.53;1.17;;;15.80;65.10;;;;;;5062862;28;20060;-79
2022/06/13 01:27:53;;;;;;;1.83;1.13;;;15.90;65.90;;;;;;5055152;28;20724;-78
2022/06/13 01:30:46;;;;;;;2.60;1.30;;;15.90;65.50;;;;;;5045565;28;20033;-79
2022/06/13 01:33:27;;;;;;;1.88;1.00;;;15.90;65.80;;;;;;5051461;28;20269;-79
2022/06/13 01:36:18;;;;;;;3.13;1.25;;;15.90;66.30;;;;;;5029833;28;20486;-78
2022/06/13 01:39:01;;;;;;;3.30;1.30;;;16.00;66.60;;;;;;5046251;28;20237;-79
2022/06/13 01:42:14;;;;;;;2.95;1.10;;;15.90;66.20;;;;;;5053652;28;20252;-79
2022/06/13 01:45:19;;;;;;;3.40;1.20;;;15.90;67.20;;;;;;5041171;28;20044;-79
2022/06/13 01:48:18;;;;;;;2.50;1.02;;;15.90;66.90;;;;;;5051897;28;20041;-79
2022/06/13 01:50:57;;;;;;;2.75;1.17;;;16.00;66.40;;;;;;5039944;28;20643;-78
2022/06/13 01:53:23;;;;;;;2.20;1.02;;;16.00;65.90;;;;;;5035542;28;20037;-79
2022/06/13 01:56:01;;;;;;;3.57;1.17;;;16.00;65.40;;;;;;5055683;28;20024;-79
2022/06/13 01:58:32;;;;;;;3.20;1.10;;;16.10;66.60;;;;;;5059247;28;20162;-79
2022/06/13 02:01:06;;;;;;;4.00;1.30;;;16.10;65.60;;;;;;5039324;28;20041;-79
2022/06/13 02:03:43;;;;;;;3.88;1.25;;;16.20;65.90;;;;;;5057373;28;20035;-79
2022/06/13 02:06:31;;;;;;;3.47;1.20;;;16.20;66.10;;;;;;5050032;28;20024;-78
2022/06/13 02:09:06;;;;;;;4.53;1.20;;;16.20;66.70;;;;;;5035106;28;20055;-79
2022/06/13 02:11:35;;;;;;;2.67;1.17;;;16.30;65.40;;;;;;5055605;28;20044;-79
2022/06/13 02:14:27;;;;;;;3.92;1.35;;;16.30;65.40;;;;;;5049583;28;20033;-79
2022/06/13 02:17:03;;;;;;;3.15;1.20;;;16.30;66.40;;;;;;5051318;28;20501;-79
2022/06/13 02:19:56;;;;;;;3.30;1.13;;;16.30;66.20;;;;;;5048989;28;20262;-79
2022/06/13 02:22:38;;;;;;;3.95;1.30;;;16.30;66.00;;;;;;5029572;28;20033;-79
2022/06/13 02:25:19;;;;;;;4.38;1.40;;;16.30;66.20;;;;;;5025618;28;20032;-79
2022/06/13 02:27:54;;;;;;;2.40;1.20;;;16.30;66.30;;;;;;5043342;28;20052;-79
2022/06/13 02:30:26;;;;;;;3.55;1.20;;;16.20;65.40;;;;;;5043600;28;20139;-79
2022/06/13 02:32:59;;;;;;;3.83;1.20;;;16.20;65.40;;;;;;5049484;28;20355;-79
2022/06/13 02:35:57;;;;;;;3.22;1.20;;;16.20;65.40;;;;;;5060796;28;20615;-79
2022/06/13 02:38:41;;;;;;;3.53;1.40;;;16.20;66.80;;;;;;5031841;28;20104;-79
2022/06/13 02:41:11;;;;;;;2.50;1.00;;;16.10;66.40;;;;;;5034525;28;20124;-78
2022/06/13 02:43:44;;;;;;;2.70;1.20;;;16.10;66.30;;;;;;5051518;28;20119;-79
2022/06/13 02:46:33;;;;;;;3.83;1.10;;;16.10;65.90;;;;;;5057513;28;20044;-78
2022/06/13 02:49:06;;;;;;;2.58;1.15;;;16.00;65.90;;;;;;5038436;28;20463;-79
2022/06/13 02:51:40;;;;;;;3.78;1.23;;;16.00;66.10;;;;;;5053566;28;20033;-79
2022/06/13 02:54:12;;;;;;;3.28;1.35;;;15.90;66.10;;;;;;5035746;28;20218;-79
2022/06/13 03:00:03;;;;;;;2.77;0.97;;;15.90;66.90;;;;;;5054698;28;20587;-79
2022/06/13 03:02:51;;;;;;;4.40;1.17;;;15.80;67.00;;;;;;5052868;28;20036;-79
2022/06/13 03:05:34;;;;;;;3.90;1.30;;;15.80;67.70;;;;;;5048789;28;20408;-79
2022/06/13 03:08:08;;;;;;;4.10;1.20;;;15.70;67.20;;;;;;5048529;28;20102;-79
2022/06/13 03:10:42;;;;;;;3.05;1.10;;;15.70;67.00;;;;;;5029805;28;20101;-79
2022/06/13 03:13:43;;;;;;;2.63;1.07;;;15.70;66.90;;;;;;5041115;28;20120;-79
2022/06/13 03:16:23;;;;;;;2.70;1.10;;;15.70;68.60;;;;;;5043754;28;20033;-79
2022/06/13 03:18:53;;;;;;;3.20;1.35;;;15.60;67.80;;;;;;5045651;28;20193;-79
2022/06/13 03:21:38;;;;;;;3.42;1.30;;;15.60;67.30;;;;;;5048819;28;20071;-79
2022/06/13 03:24:31;;;;;;;3.15;1.48;;;15.60;68.60;;;;;;5052500;28;20036;-78
2022/06/13 03:27:03;;;;;;;2.73;1.20;;;15.60;69.10;;;;;;5018082;28;20531;-79
2022/06/13 03:29:47;;;;;;;4.80;1.40;;;15.60;67.60;;;;;;5051511;28;20068;-79
2022/06/13 03:32:22;;;;;;;2.65;1.17;;;15.50;68.10;;;;;;5051052;28;20033;-79
2022/06/13 03:34:53;;;;;;;2.60;1.40;;;15.50;67.80;;;;;;5046932;28;20360;-79
2022/06/13 03:37:32;;;;;;;2.38;1.30;;;15.50;67.90;;;;;;5047066;28;20043;-79
2022/06/13 03:40:06;;;;;;;3.87;1.40;;;15.50;68.40;;;;;;5022076;28;20036;-78
2022/06/13 03:42:37;;;;;;;4.28;1.30;;;15.50;68.40;;;;;;5043275;28;20037;-78
2022/06/13 03:45:30;;;;;;;3.03;1.33;;;15.50;67.80;;;;;;5031739;28;20032;-78
2022/06/13 03:48:22;;;;;;;5.15;1.33;;;15.50;69.60;;;;;;5046647;28;20048;-79
2022/06/13 03:50:57;;;;;;;3.45;1.23;;;15.50;69.80;;;;;;5045760;28;20499;-79
2022/06/13 03:53:31;;;;;;;3.27;1.20;;;15.50;68.50;;;;;;5043344;28;20600;-79
2022/06/13 03:56:15;;;;;;;3.03;1.30;;;15.50;68.90;;;;;;5035319;28;20417;-79
2022/06/13 03:58:45;;;;;;;2.30;1.20;;;15.50;69.20;;;;;;5043663;28;20033;-79
2022/06/13 04:01:39;;;;;;;3.85;1.40;;;15.50;68.70;;;;;;5050174;28;20029;-79
2022/06/13 04:04:05;;;;;;;3.50;1.20;;;15.50;71.10;;;;;;5034092;28;20035;-79
2022/06/13 04:06:38;;;;;;;3.07;1.33;;;15.60;68.60;;;;;;5057108;28;20388;-78
2022/06/13 04:09:15;;;;;;;2.72;1.17;;;15.60;68.70;;;;;;5034154;28;20356;-79
2022/06/13 04:11:59;;;;;;;3.53;1.40;;;15.60;69.70;;;;;;5028712;28;20123;-79
2022/06/13 04:14:46;;;;;;;2.97;1.30;;;15.50;70.40;;;;;;5049215;28;20173;-79
2022/06/13 04:17:28;;;;;;;3.30;1.67;;;15.60;69.70;;;;;;5037611;28;20033;-79
2022/06/13 04:20:27;;;;;;;3.43;1.40;;;15.60;69.00;;;;;;5046483;28;20420;-79
2022/06/13 04:23:02;;;;;;;2.35;1.40;;;15.60;71.80;;;;;;5047674;28;20029;-79
2022/06/13 04:25:41;;;;;;;5.20;1.35;;;15.60;69.70;;;;;;5044568;28;20104;-79
2022/06/13 04:28:37;;;;;;;4.80;1.38;;;15.60;70.40;;;;;;5020216;28;20090;-79
2022/06/13 04:31:06;;;;;;;2.47;1.33;;;15.60;71.20;;;;;;5036562;28;20037;-78
2022/06/13 04:33:58;;;;;;;2.83;1.20;;;15.70;69.90;;;;;;5050547;28;20036;-79
2022/06/13 04:36:25;;;;;;;5.95;1.30;;;15.70;71.80;;;;;;5048303;28;20269;-79
2022/06/13 04:38:55;;;;;;;5.22;1.60;;;15.70;70.10;;;;;;5045918;28;20413;-78
2022/06/13 04:41:27;;;;;;;3.85;1.30;;;15.80;70.70;;;;;;5043524;28;20324;-78
2022/06/13 04:43:57;;;;;;;5.43;1.70;;;15.90;71.00;;;;;;5023821;28;20072;-78
2022/06/13 04:46:26;;;;;;;4.77;1.50;;;15.90;70.90;;;;;;5039812;28;20238;-78
2022/06/13 04:48:56;;;;;;;2.75;1.33;;;16.00;70.80;;;;;;5049592;28;20087;-79
2022/06/13 04:51:30;;;;;;;5.53;1.48;;;16.00;70.70;;;;;;5045761;28;20049;-78
2022/06/13 04:54:11;;;;;;;4.28;1.60;;;16.10;71.10;;;;;;5033501;28;20049;-79
2022/06/13 04:56:37;;;;;;;5.50;1.50;;;16.10;71.70;;;;;;5044985;28;20029;-78
2022/06/13 04:59:04;;;;;;;4.60;1.40;;;16.20;70.60;;;;;;4993257;28;20380;-78
2022/06/13 05:01:36;;;;;;;4.75;1.33;;;16.20;70.60;;;;;;5042862;28;20040;-78
2022/06/13 05:04:09;;;;;;;5.55;1.50;;;16.20;71.10;;;;;;5030689;28;20040;-78
2022/06/13 05:06:37;;;;;;;4.75;1.50;;;16.30;71.20;;;;;;5050846;28;20036;-81
2022/06/13 05:09:31;;;;;;;4.53;1.70;;;16.30;70.80;;;;;;5033067;28;20047;-81
2022/06/13 05:12:16;;;;;;;4.00;1.50;;;16.40;72.00;;;;;;5057761;28;21272;-80
2022/06/13 05:14:50;;;;;;;4.97;1.40;;;16.30;72.40;;;;;;5015500;28;20044;-81
2022/06/13 05:17:28;;;;;;;5.15;1.67;;;16.40;71.40;;;;;;5039734;28;20184;-80
2022/06/13 05:20:15;;;;;;;6.35;1.80;;;16.40;72.20;;;;;;5037989;28;20059;-80
2022/06/13 05:22:53;;;;;;;6.60;1.80;;;16.40;71.60;;;;;;5048101;28;20044;-81
2022/06/13 05:25:45;;;;;;;4.17;1.60;;;16.50;72.20;;;;;;5049097;28;20250;-81
2022/06/13 05:28:22;;;;;;;5.13;1.60;;;16.60;72.10;;;;;;5021821;28;20206;-80
2022/06/13 05:30:51;;;;;;;4.25;1.63;;;16.60;73.20;;;;;;5053032;28;20044;-80
2022/06/13 05:33:21;;;;;;;7.00;1.90;;;16.70;71.90;;;;;;5034923;28;20329;-80
2022/06/13 05:35:47;;;;;;;6.60;2.00;;;16.70;71.80;;;;;;5049473;28;20044;-80
2022/06/13 05:38:23;;;;;;;7.20;2.00;;;16.80;71.80;;;;;;5035561;28;20331;-81
2022/06/13 05:40:49;;;;;;;5.43;1.90;;;16.80;72.20;;;;;;5047662;28;20474;-80
2022/06/13 05:43:16;;;;;;;5.53;2.10;;;16.90;71.90;;;;;;5045408;28;20154;-80
2022/06/13 05:45:42;;;;;;;5.82;1.90;;;16.90;71.90;;;;;;5014523;28;20513;-80
2022/06/13 05:48:14;;;;;;;3.90;1.90;;;16.90;72.00;;;;;;5037485;28;20063;-81
2022/06/13 05:50:41;;;;;;;4.85;1.88;;;17.00;72.50;;;;;;5047983;28;20040;-81
2022/06/13 05:53:09;;;;;;;6.13;1.98;;;17.10;72.10;;;;;;5024801;28;20075;-81
2022/06/13 05:55:35;;;;;;;7.10;1.92;;;17.20;72.20;;;;;;5051966;28;20041;-81
2022/06/13 05:58:01;;;;;;;6.63;2.00;;;17.20;72.10;;;;;;5048214;28;20055;-78
2022/06/13 06:00:32;;;;;;;6.60;2.25;;;17.30;72.10;;;;;;5010425;28;20094;-78
2022/06/13 06:02:58;;;;;;;7.15;2.05;;;17.30;72.20;;;;;;5023527;28;20500;-78
2022/06/13 06:05:24;;;;;;;4.67;1.63;;;17.40;72.00;;;;;;5047307;28;20092;-78
2022/06/13 06:07:50;;;;;;;4.63;1.80;;;17.40;72.00;;;;;;5028627;28;20268;-78
2022/06/13 06:10:27;;;;;;;5.15;1.73;;;17.50;72.10;;;;;;5058042;28;20037;-78
2022/06/13 06:12:52;;;;;;;5.17;1.80;;;17.50;72.80;;;;;;5057583;28;20562;-79
2022/06/13 06:15:18;;;;;;;4.75;1.90;;;17.60;72.50;;;;;;5026058;28;20124;-78
2022/06/13 06:17:43;;;;;;;6.77;2.10;;;17.70;72.80;;;;;;5027378;28;20227;-77
2022/06/13 06:20:16;;;;;;;5.65;2.10;;;17.80;73.10;;;;;;5050695;28;20032;-78
2022/06/13 06:22:42;;;;;;;5.53;1.90;;;17.90;73.70;;;;;;5038865;28;20436;-78
2022/06/13 06:25:08;;;;;;;4.57;2.00;;;18.00;73.40;;;;;;5053925;28;20029;-78
2022/06/13 06:27:34;;;;;;;6.18;1.83;;;18.20;73.40;;;;;;5048657;28;20029;-78
2022/06/13 06:29:59;;;;;;;5.03;2.00;;;18.30;73.20;;;;;;5053454;28;20043;-78
2022/06/13 06:32:25;;;;;;;10.00;2.30;;;18.40;73.10;;;;;;5034989;28;20862;-78
2022/06/13 06:34:51;;;;;;;6.30;1.95;;;18.50;72.80;;;;;;5042086;28;20127;-78
2022/06/13 06:37:17;;;;;;;7.57;2.27;;;18.60;72.70;;;;;;5047018;28;20440;-78
2022/06/13 06:39:42;;;;;;;6.82;2.20;;;18.70;73.20;;;;;;5023816;28;20607;-78
2022/06/13 06:42:09;;;;;;;6.33;2.00;;;18.80;72.80;;;;;;5056866;28;20127;-78
2022/06/13 06:44:35;;;;;;;5.93;2.13;;;18.90;73.60;;;;;;5047994;28;20062;-78
2022/06/13 06:47:00;;;;;;;5.50;1.83;;;19.00;72.80;;;;;;5040431;28;20036;-78
2022/06/13 06:49:26;;;;;;;7.10;2.50;;;19.10;72.80;;;;;;5034844;28;20118;-78
2022/06/13 06:51:52;;;;;;;5.07;2.07;;;19.20;72.80;;;;;;5068129;28;20128;-78
2022/06/13 06:59:58;;;;;;;5.23;2.00;;;19.70;72.70;;;;;;5074351;28;20119;-79
2022/06/13 07:02:26;;;;;;;7.57;2.30;;;19.80;72.60;;;;;;5051816;28;20114;-78
2022/06/13 07:05:00;;;;;;;5.30;2.05;;;19.90;72.20;;;;;;5042400;28;20036;-78
2022/06/13 07:07:26;;;;;;;5.00;2.03;;;20.10;71.80;;;;;;5066123;28;20040;-78
2022/06/13 07:09:52;;;;;;;5.53;1.92;;;20.20;71.50;;;;;;5037255;28;20754;-79
2022/06/13 07:12:18;;;;;;;7.27;2.20;;;20.20;71.30;;;;;;5044503;28;20493;-78
2022/06/13 07:14:44;;;;;;;6.13;2.20;;;20.30;71.00;;;;;;5054619;28;20032;-78
2022/06/13 07:17:11;;;;;;;7.90;1.90;;;20.30;70.60;;;;;;5069837;28;20042;-78
2022/06/13 07:19:37;;;;;;;7.50;2.00;;;20.40;70.40;;;;;;5020949;28;20497;-78
2022/06/13 07:22:05;;;;;;;4.57;1.87;;;20.40;70.20;;;;;;5065775;28;20090;-80
2022/06/13 07:24:31;;;;;;;4.47;1.83;;;20.40;70.00;;;;;;5045002;28;20404;-78
2022/06/13 07:26:57;;;;;;;4.43;1.67;;;20.40;69.90;;;;;;5037468;28;20032;-79
2022/06/13 07:29:23;;;;;;;4.28;1.60;;;20.40;69.70;;;;;;5060588;28;20079;-79
2022/06/13 07:31:54;;;;;;;5.95;1.83;;;20.40;69.50;;;;;;5069713;28;20028;-79
2022/06/13 07:34:22;;;;;;;5.97;1.90;;;20.40;69.40;;;;;;5026120;28;20294;-78
2022/06/13 07:36:50;;;;;;;4.70;1.60;;;20.40;69.50;;;;;;5044932;28;20083;-78
2022/06/13 07:39:17;;;;;;;3.65;1.52;;;20.40;69.10;;;;;;5053930;28;20423;-79
2022/06/13 07:41:43;;;;;;;3.75;1.63;;;20.40;68.90;;;;;;5040418;28;20469;-79
2022/06/13 07:44:45;;;;;;;4.22;1.52;;;20.50;68.90;;;;;;5029649;28;20044;-78
2022/06/13 07:47:17;;;;;;;4.47;1.57;;;20.50;68.70;;;;;;5030771;28;20036;-78
2022/06/13 07:49:42;;;;;;;4.20;1.58;;;20.50;68.20;;;;;;5037273;28;20359;-78
2022/06/13 07:52:08;;;;;;;4.43;1.47;;;20.50;68.10;;;;;;5052196;28;20066;-79
2022/06/13 07:54:33;;;;;;;2.63;1.30;;;20.40;67.80;;;;;;5057897;28;20345;-80
2022/06/13 07:56:59;;;;;;;3.17;1.37;;;20.40;67.60;;;;;;5050808;28;20047;-78
2022/06/13 07:59:29;;;;;;;3.85;1.33;;;20.40;68.70;;;;;;5042336;28;20233;-78
2022/06/13 08:01:56;;;;;;;2.72;1.30;;;20.50;69.00;;;;;;5056752;28;20059;-79
2022/06/13 08:04:22;;;;;;;3.63;1.33;;;20.80;69.50;;;;;;5056884;28;20134;-79
2022/06/13 08:06:48;;;;;;;2.47;1.25;;;21.00;70.10;;;;;;5023496;28;20037;-78
2022/06/13 08:09:13;;;;;;;3.13;1.10;;;21.30;71.40;;;;;;5027083;28;20025;-79
2022/06/13 08:11:47;;;;;;;3.40;1.25;;;21.80;72.60;;;;;;5024061;28;20065;-78
2022/06/13 08:14:13;;;;;;;3.00;1.23;;;22.30;71.60;;;;;;5042238;28;20385;-79
2022/06/13 08:16:39;;;;;;;2.42;1.25;;;23.00;73.90;;;;;;5046166;28;20029;-79
2022/06/13 08:19:05;;;;;;;3.60;1.40;;;23.60;73.60;;;;;;5050580;28;20060;-78
2022/06/13 08:21:35;;;;;;;2.47;1.20;;;24.20;71.80;;;;;;5023072;28;20090;-77
2022/06/13 08:24:01;;;;;;;2.23;1.07;;;24.70;68.90;;;;;;5071398;28;20021;-79
2022/06/13 08:26:27;;;;;;;2.95;1.27;;;25.20;68.60;;;;;;5051444;28;20332;-79
2022/06/13 08:28:53;;;;;;;4.13;1.13;;;25.50;67.20;;;;;;5032915;28;20040;-80
2022/06/13 08:31:21;;;;;;;2.83;1.33;;;25.80;66.40;;;;;;5043600;28;20044;-79
2022/06/13 08:33:47;;;;;;;3.20;1.20;;;26.10;64.70;;;;;;5043500;28;20032;-79
2022/06/13 08:36:12;;;;;;;3.22;1.20;;;26.30;63.00;;;;;;5050321;28;20040;-79
2022/06/13 08:38:38;;;;;;;5.15;1.48;;;26.30;61.50;;;;;;5024471;28;20029;-78
2022/06/13 08:41:07;;;;;;;4.70;1.20;;;26.20;60.10;;;;;;5054265;28;20047;-79
2022/06/13 08:44:03;;;;;;;2.10;1.10;;;26.10;58.50;;;;;;5040931;28;20090;-79
2022/06/13 08:46:32;;;;;;;2.80;1.50;;;25.90;56.80;;;;;;5040863;28;20373;-79
2022/06/13 08:49:55;;;;;;;2.28;1.20;;;25.80;59.80;;;;;;5049005;28;20393;-79
2022/06/13 08:52:27;;;;;;;3.58;2.35;;;25.70;56.90;;;;;;5006753;28;20071;-79
2022/06/13 08:55:04;;;;;;;5.72;2.90;;;25.60;57.50;;;;;;5020560;28;20124;-79
2022/06/13 08:57:34;;;;;;;3.67;1.70;;;25.50;57.10;;;;;;5018226;28;20582;-80
2022/06/13 09:00:13;;;;;;;4.47;1.33;;;25.30;57.70;;;;;;5026285;28;20043;-80
2022/06/13 09:03:00;;;;;;;2.13;1.17;;;25.40;58.30;;;;;;5023504;28;20653;-79
2022/06/13 09:06:05;;;;;;;2.75;1.10;;;25.60;58.70;;;;;;5049581;28;20090;-79
2022/06/13 09:08:37;;;;;;;1.92;1.10;;;25.80;57.50;;;;;;5027462;28;20045;-79
2022/06/13 09:11:13;;;;;;;3.53;1.10;;;25.90;58.50;;;;;;5057757;28;20078;-82
2022/06/13 09:13:42;;;;;;;2.65;1.00;;;25.90;56.50;;;;;;5060559;28;20063;-79
2022/06/13 09:16:37;;;;;;;2.63;1.02;;;25.80;56.60;;;;;;5029783;28;20040;-79
2022/06/13 09:19:09;;;;;;;1.60;1.10;;;25.80;56.20;;;;;;5052544;28;20049;-81
2022/06/13 09:21:40;;;;;;;2.88;1.05;;;25.60;56.40;;;;;;5037208;28;20040;-80
2022/06/13 09:24:27;;;;;;;2.97;0.93;;;25.60;56.30;;;;;;5037759;28;20126;-78
2022/06/13 09:27:00;;;;;;;1.98;1.00;;;25.50;55.50;;;;;;5052374;28;20033;-79
2022/06/13 09:29:33;;;;;;;2.47;1.00;;;25.50;56.00;;;;;;5061020;28;20036;-80
2022/06/13 09:32:21;;;;;;;2.03;1.00;;;25.40;54.90;;;;;;5023449;28;20693;-78
2022/06/13 09:34:51;;;;;;;2.45;0.95;;;25.40;54.20;;;;;;5048694;28;20130;-79
2022/06/13 09:37:20;;;;;;;2.37;1.00;;;25.30;54.90;;;;;;5044133;28;20052;-80
2022/06/13 09:39:46;;;;;;;2.13;1.00;;;25.10;53.70;;;;;;5033213;28;20033;-78
2022/06/13 09:42:27;;;;;;;1.90;1.10;;;25.00;54.00;;;;;;5054080;28;20554;-79
2022/06/13 09:45:18;;;;;;;1.73;0.90;;;24.80;53.00;;;;;;5052957;28;20036;-80
2022/06/13 09:48:19;;;;;;;1.98;0.90;;;24.90;54.70;;;;;;5032378;28;20038;-79
2022/06/13 09:50:50;;;;;;;2.17;0.90;;;25.20;56.20;;;;;;5055984;28;20488;-78
2022/06/13 09:53:51;;;;;;;1.73;0.88;;;25.60;58.10;;;;;;5028266;28;20488;-78
2022/06/13 09:56:37;;;;;;;1.25;0.88;;;26.10;55.90;;;;;;5050997;28;20082;-78
2022/06/13 09:59:24;;;;;;;1.47;0.80;;;26.60;56.50;;;;;;5043903;28;20413;-79
2022/06/13 10:01:58;;;;;;;1.90;0.80;;;27.00;54.70;;;;;;5040168;28;20052;-77
2022/06/13 10:04:39;;;;;;;1.48;0.90;;;27.20;53.40;;;;;;5044176;28;20049;-79
2022/06/13 10:07:20;;;;;;;1.08;0.80;;;27.40;52.40;;;;;;5041415;28;20045;-80
2022/06/13 10:09:54;;;;;;;1.38;0.80;;;27.50;52.10;;;;;;5026460;28;20098;-79
2022/06/13 10:12:44;;;;;;;1.90;0.80;;;27.50;52.70;;;;;;5062626;28;20029;-78
2022/06/13 10:15:17;;;;;;;1.95;0.82;;;27.50;50.60;;;;;;5059198;28;20312;-78
2022/06/13 10:18:26;;;;;;;2.47;0.80;;;27.50;51.30;;;;;;5040955;28;20485;-78
2022/06/13 10:20:58;;;;;;;1.83;1.00;;;27.50;51.60;;;;;;5046850;28;20666;-80
2022/06/13 10:23:36;;;;;;;1.33;0.70;;;27.70;53.10;;;;;;5058910;28;20028;-80
2022/06/13 10:26:25;;;;;;;1.67;0.80;;;27.90;52.10;;;;;;5036246;28;20386;-81
2022/06/13 10:29:07;;;;;;;1.67;0.90;;;28.20;52.40;;;;;;5043553;28;20083;-82
2022/06/13 10:31:57;;;;;;;1.27;0.80;;;28.60;53.90;;;;;;5051128;28;20025;-80
2022/06/13 10:34:54;;;;;;;1.23;0.80;;;28.90;50.90;;;;;;5040488;28;20287;-79
2022/06/13 10:37:51;;;;;;;1.02;0.70;;;29.00;49.10;;;;;;5047640;28;20028;-79
2022/06/13 10:40:17;;;;;;;1.17;0.80;;;29.10;49.90;;;;;;5023225;28;20025;-79
2022/06/13 10:42:44;;;;;;;1.70;0.80;;;29.30;51.50;;;;;;5051407;28;20032;-79
2022/06/13 10:45:14;;;;;;;1.73;0.80;;;29.40;50.80;;;;;;5059023;28;20582;-80
2022/06/13 10:47:53;;;;;;;1.45;0.70;;;29.50;49.10;;;;;;5055658;28;20515;-81
2022/06/13 10:50:38;;;;;;;1.00;0.80;;;29.60;47.20;;;;;;5059519;28;20115;-79
2022/06/13 10:53:15;;;;;;;1.30;0.70;;;29.50;46.00;;;;;;5066032;28;20029;-79
2022/06/13 10:55:43;;;;;;;2.38;0.63;;;29.40;45.30;;;;;;5022436;28;21024;-80
2022/06/13 10:58:32;;;;;;;1.67;0.80;;;29.10;46.10;;;;;;5052928;28;20028;-79
2022/06/13 11:01:11;;;;;;;1.50;0.90;;;28.90;45.00;;;;;;5043866;28;20047;-81
2022/06/13 11:03:39;;;;;;;2.00;0.88;;;28.70;45.90;;;;;;5032054;28;20094;-80
2022/06/13 11:06:13;;;;;;;1.53;0.73;;;28.60;47.10;;;;;;5042430;28;20541;-79
2022/06/13 11:08:40;;;;;;;1.98;0.80;;;28.40;46.40;;;;;;5060463;28;20108;-80
2022/06/13 11:11:15;;;;;;;2.08;0.93;;;28.30;46.80;;;;;;5034745;28;20032;-79
2022/06/13 11:13:43;;;;;;;2.65;0.88;;;28.40;47.50;;;;;;5057324;28;20709;-80
2022/06/13 11:22:40;;;;;;;2.10;0.80;;;28.40;46.30;;;;;;5002749;28;20033;-79
2022/06/13 11:25:20;;;;;;;1.30;0.80;;;28.50;48.00;;;;;;5025824;28;20080;-80
2022/06/13 11:28:01;;;;;;;1.42;0.80;;;28.70;46.40;;;;;;5021370;28;20500;-79
2022/06/13 11:30:27;;;;;;;1.48;0.80;;;29.00;47.90;;;;;;5070444;28;20534;-81
2022/06/13 11:33:13;;;;;;;1.30;0.90;;;29.50;49.00;;;;;;5055809;28;20040;-80
2022/06/13 11:35:46;;;;;;;2.30;0.90;;;29.90;47.40;;;;;;5047926;28;20138;-80
2022/06/13 11:38:26;;;;;;;2.78;1.27;;;30.30;47.40;;;;;;5047611;28;20423;-80
2022/06/13 11:41:18;;;;;;;1.30;0.95;;;30.50;45.00;;;;;;5045245;28;20032;-81
2022/06/13 11:44:05;;;;;;;1.03;0.90;;;30.50;43.10;;;;;;5034542;28;20051;-80
2022/06/13 11:46:32;;;;;;;1.10;0.80;;;30.40;43.10;;;;;;5068266;28;20332;-78
2022/06/13 11:49:16;;;;;;;1.50;0.77;;;30.50;44.60;;;;;;5043247;28;20435;-80
2022/06/13 11:51:54;;;;;;;1.55;0.90;;;30.60;43.50;;;;;;5040196;28;20155;-81
2022/06/13 11:54:48;;;;;;;1.80;0.80;;;30.70;44.80;;;;;;5046716;28;20253;-80
2022/06/13 11:57:31;;;;;;;1.67;0.97;;;30.90;43.60;;;;;;5058107;28;20705;-80
2022/06/13 12:00:08;;;;;;;2.95;1.00;;;31.00;44.90;;;;;;5033024;28;20159;-81
2022/06/13 12:02:49;;;;;;;1.00;0.90;;;31.10;43.00;;;;;;5051296;28;20419;-79
2022/06/13 12:05:22;;;;;;;1.20;0.82;;;31.20;42.70;;;;;;5043978;28;20176;-80
2022/06/13 12:08:06;;;;;;;1.92;0.90;;;31.30;42.20;;;;;;5047292;28;20772;-81
2022/06/13 12:10:38;;;;;;;1.73;0.90;;;31.50;42.30;;;;;;5046105;28;20404;-81
2022/06/13 12:13:12;;;;;;;1.70;0.90;;;31.60;42.30;;;;;;5038958;28;20474;-80
2022/06/13 12:16:01;;;;;;;1.42;0.70;;;31.80;41.50;;;;;;5031572;28;20041;-81
2022/06/13 12:18:41;;;;;;;1.00;0.70;;;31.90;41.40;;;;;;5039421;28;20493;-79
2022/06/13 12:21:09;;;;;;;1.20;0.82;;;31.90;41.20;;;;;;5028405;28;20036;-80
2022/06/13 12:23:48;;;;;;;2.57;0.93;;;32.00;41.90;;;;;;5048760;28;20029;-80
2022/06/13 12:26:29;;;;;;;2.28;0.90;;;32.10;40.00;;;;;;5044397;28;20037;-79
2022/06/13 12:29:13;;;;;;;1.50;0.88;;;32.10;40.00;;;;;;5054126;28;20064;-81
2022/06/13 12:31:54;;;;;;;1.50;1.00;;;32.20;39.80;;;;;;5035474;28;20043;-81
2022/06/13 12:34:30;;;;;;;0.75;0.65;;;32.30;38.00;;;;;;5046375;28;20123;-80
2022/06/13 12:37:19;;;;;;;0.97;0.90;;;32.20;38.60;;;;;;5038041;28;20380;-80
2022/06/13 12:40:26;;;;;;;1.83;0.80;;;32.20;38.90;;;;;;5041688;28;20040;-81
2022/06/13 12:43:14;;;;;;;0.95;0.75;;;32.20;37.60;;;;;;5050301;28;20029;-79
2022/06/13 12:45:58;;;;;;;1.05;0.90;;;32.30;37.90;;;;;;5052661;28;20123;-79
2022/06/13 12:48:52;;;;;;;0.85;0.70;;;32.20;37.80;;;;;;5052777;28;20123;-80
2022/06/13 12:51:29;;;;;;;1.07;1.00;;;32.20;38.20;;;;;;5048787;28;20439;-79
2022/06/13 12:54:21;;;;;;;1.00;0.85;;;32.20;37.80;;;;;;5058539;28;20247;-80
2022/06/13 12:57:11;;;;;;;1.60;0.80;;;32.30;38.00;;;;;;5024631;28;20120;-80
2022/06/13 13:00:00;;;;;;;1.77;0.93;;;32.40;37.40;;;;;;5054971;28;20025;-78
2022/06/13 13:03:03;;;;;;;0.93;0.85;;;32.60;38.70;;;;;;5042632;28;20044;-79
2022/06/13 13:05:57;;;;;;;1.40;0.60;;;32.70;37.40;;;;;;5044847;28;20369;-80
2022/06/13 13:08:56;;;;;;;1.17;0.80;;;32.70;37.00;;;;;;5053119;28;20046;-81
2022/06/13 13:11:57;;;;;;;1.88;1.10;;;32.70;36.30;;;;;;5047254;28;20523;-81
2022/06/13 13:14:40;;;;;;;1.13;0.70;;;32.60;35.50;;;;;;5061828;28;20090;-80
2022/06/13 13:17:39;;;;;;;0.77;0.70;;;32.30;35.20;;;;;;5041407;28;20142;-82
2022/06/13 13:20:25;;;;;;;3.13;0.90;;;32.10;35.10;;;;;;5054799;28;20721;-80
2022/06/13 13:23:00;;;;;;;1.10;0.80;;;31.90;35.50;;;;;;5038304;28;20078;-79
2022/06/13 13:25:38;;;;;;;1.50;0.80;;;31.70;36.10;;;;;;5047072;28;20032;-79
2022/06/13 13:28:16;;;;;;;1.95;0.85;;;31.50;36.00;;;;;;5044678;28;20123;-80
2022/06/13 13:30:59;;;;;;;1.70;0.80;;;31.50;35.70;;;;;;5054063;28;20033;-80
2022/06/13 13:33:34;;;;;;;2.70;1.10;;;31.50;36.20;;;;;;5041840;28;20121;-80
2022/06/13 13:36:33;;;;;;;0.80;0.80;;;31.40;36.00;;;;;;5039267;28;20056;-80
2022/06/13 13:39:13;;;;;;;0.98;0.80;;;31.40;36.30;;;;;;5048602;28;20387;-80
2022/06/13 13:41:53;;;;;;;1.77;0.80;;;31.40;36.00;;;;;;5039937;28;20056;-80
2022/06/13 13:44:25;;;;;;;1.83;0.90;;;31.40;36.60;;;;;;5048619;28;20024;-81
2022/06/13 13:47:21;;;;;;;1.50;0.70;;;31.40;37.00;;;;;;5024498;28;20037;-79
2022/06/13 13:50:05;;;;;;;0.95;0.70;;;31.40;35.70;;;;;;5049401;28;20041;-79
2022/06/13 13:52:35;;;;;;;0.98;0.70;;;31.30;35.00;;;;;;5046022;28;20034;-81
2022/06/13 13:55:12;;;;;;;1.73;0.80;;;31.10;36.20;;;;;;5049920;28;20106;-82